Overview Statistics Trail Chart Weather Telemetry Raw packets
 

This is the latest recevied weather packets stored in our database for station/object HS5XHC-1. If no packets are shown the sender has not sent any weather packets the latest 10 day(s).

<< 8 9 10 11 12 13 14 >>
Time Temp. Humidity Pressure Rain* Wind** Luminosity Snow
1777742562 28.33° C 45% 965 hPa - - 0 W/m² -
1777741939 28.33° C 45% 965 hPa - - 0 W/m² -
1777741314 28.33° C 45% 965 hPa - - 0 W/m² -
1777741164 28.33° C 45% 965 hPa - - 0 W/m² -
1777740540 28.89° C 44% 965 hPa - - 0 W/m² -
1777739916 29.44° C 44% 965 hPa - - 0 W/m² -
1777739291 29.44° C 44% 965 hPa - - 0 W/m² -
1777738668 30° C 43% 965 hPa - - 0 W/m² -
1777738044 30° C 43% 965 hPa - - 0 W/m² -
1777737420 29.44° C 44% 965 hPa - - 0 W/m² -
1777736796 30° C 42% 965 hPa - - 0 W/m² -
1777736172 30° C 41% 965 hPa - - 0 W/m² -
1777735548 30.56° C 40% 965 hPa - - 0 W/m² -
1777734924 30.56° C 39% 965 hPa - - 0 W/m² -
1777734300 31.67° C 35% 964 hPa - - 0 W/m² -
1777733676 32.78° C 34% 964 hPa - - 0 W/m² -
1777733052 32.78° C 33% 964 hPa - - 0 W/m² -
1777732428 32.78° C 33% 964 hPa - - 0 W/m² -
1777731804 32.22° C 33% 964 hPa - - 0 W/m² -
1777731179 32.22° C 33% 964 hPa - - 0 W/m² -
1777730556 32.78° C 34% 964 hPa - - 0 W/m² -
1777729932 34.44° C 27% 963 hPa - - 0 W/m² -
1777729308 34.44° C 28% 963 hPa - - 0 W/m² -
1777728684 34.44° C 28% 963 hPa - - 0 W/m² -
1777728060 34.44° C 28% 963 hPa - - 0 W/m² -

* Rain since midnight (hover to see other rain measurements)
** Current wind speed in m/s (hover to see current wind gust speed)